This is the latest recevied weather packets stored in our database for station/object KJ5MTR. If no packets are shown the sender has not sent any weather packets the latest 10 day(s).
| Time | Temp. | Humidity | Pressure | Rain* | Wind** | Luminosity | Snow |
|---|---|---|---|---|---|---|---|
| 1777366516 | 24.44° C | 90% | 1010.8 hPa | 0 mm | - | - | - |
| 1777361716 | 24.44° C | 91% | 1011.1 hPa | 0 mm | - | - | - |
| 1777355736 | 25° C | 89% | 1011.8 hPa | 0 mm | - | - | - |
| 1777352716 | 25.56° C | 88% | 1011.4 hPa | 0 mm | - | - | - |
| 1777347916 | 26.11° C | 86% | 1010.9 hPa | 0 mm | - | - | - |
| 1777343116 | 27.22° C | 84% | 1010.4 hPa | 0 mm | - | - | - |
| 1777337136 | 28.89° C | 76% | 1008.4 hPa | 0 mm | - | - | - |
| 1777332315 | 30.56° C | 69% | 1008.5 hPa | 0 mm | - | - | - |
| 1777331715 | 30.56° C | 68% | 1008.6 hPa | 0 mm | - | - | - |
| 1777330518 | 31.11° C | 67% | 1008.5 hPa | 0 mm | - | - | - |
| 1777325137 | 32.22° C | 64% | 1008.6 hPa | 0 mm | - | - | - |
| 1777324517 | 31.67° C | 67% | 1008.6 hPa | 0 mm | - | - | - |
| 1777323917 | 32.22° C | 64% | 1008.8 hPa | 0 mm | - | - | - |
| 1777318517 | 32.22° C | 63% | 1009.7 hPa | 0 mm | - | - | - |
| 1777305317 | 27.22° C | 76% | 1010.3 hPa | 0 mm | - | - | - |
| 1777302917 | 26.67° C | 80% | 1009.9 hPa | 0 mm | - | - | - |
| 1777298137 | 25.56° C | 85% | 1009 hPa | 0 mm | - | - | - |
| 1777295716 | 24.44° C | 88% | 1008.8 hPa | 0 mm | - | - | - |
| 1777283716 | 23.89° C | 88% | 1007.3 hPa | 0 mm | - | - | - |
| 1777277716 | 24.44° C | 88% | 1007.3 hPa | 0 mm | - | - | - |
| 1777274716 | 24.44° C | 88% | 1007.7 hPa | 0 mm | - | - | - |
| 1777270516 | 24.44° C | 88% | 1008 hPa | 0 mm | - | - | - |
| 1777269916 | 24.44° C | 88% | 1008.1 hPa | 0 mm | - | - | - |
| 1777266336 | 24.44° C | 87% | 1007.4 hPa | 0 mm | - | - | - |
| 1777264516 | 25° C | 85% | 1007.5 hPa | 0 mm | - | - | - |
* Rain latest hour (hover to see other rain measurements)
** Current wind speed in m/s (hover to see current wind gust speed)